createdAt,value
2023-05-10T00:01:29.388Z,0.88
2023-05-10T00:03:56.426Z,0.95
2023-05-10T00:06:23.408Z,0.88
2023-05-10T00:08:50.357Z,1.10
2023-05-10T00:11:17.217Z,1.02
2023-05-10T00:13:44.078Z,1.00
2023-05-10T00:16:11.023Z,1.02
2023-05-10T00:18:37.901Z,0.80
2023-05-10T00:21:05.061Z,0.85
2023-05-10T00:23:31.909Z,0.80
2023-05-10T00:25:58.798Z,0.90
2023-05-10T00:28:25.873Z,0.80
2023-05-10T00:30:52.775Z,0.70
2023-05-10T00:33:19.693Z,1.00
2023-05-10T00:35:46.535Z,1.00
2023-05-10T00:38:20.058Z,0.95
2023-05-10T00:40:47.298Z,1.02
2023-05-10T00:43:22.648Z,1.02
2023-05-10T00:45:49.861Z,1.20
2023-05-10T00:48:16.987Z,1.13
2023-05-10T00:50:43.910Z,1.25
2023-05-10T00:53:11.410Z,1.20
2023-05-10T00:55:38.504Z,1.17
2023-05-10T00:58:05.789Z,1.00
2023-05-10T01:00:33.985Z,1.40
2023-05-10T01:03:01.729Z,1.20
2023-05-10T01:05:28.851Z,1.23
2023-05-10T01:07:57.504Z,1.00
2023-05-10T01:10:24.604Z,0.90
2023-05-10T01:12:51.864Z,1.10
2023-05-10T01:15:19.069Z,1.00
2023-05-10T01:17:46.383Z,1.35
2023-05-10T01:20:13.564Z,1.10
2023-05-10T01:22:59.264Z,1.35
2023-05-10T01:25:37.835Z,1.27
2023-05-10T01:28:16.670Z,1.48
2023-05-10T01:30:55.959Z,1.90
2023-05-10T01:33:31.723Z,1.45
2023-05-10T01:36:20.377Z,1.30
2023-05-10T01:38:57.620Z,1.40
2023-05-10T01:41:50.560Z,1.55
2023-05-10T01:44:40.349Z,1.58
2023-05-10T01:47:19.978Z,1.58
2023-05-10T01:49:50.649Z,1.30
2023-05-10T01:52:23.437Z,1.50
2023-05-10T01:54:57.090Z,1.40
2023-05-10T01:57:25.815Z,1.70
2023-05-10T01:59:52.836Z,1.50
2023-05-10T02:02:22.898Z,1.42
2023-05-10T02:04:50.904Z,1.50
2023-05-10T02:07:18.234Z,1.13
2023-05-10T02:09:45.617Z,1.98
2023-05-10T02:12:12.969Z,1.60
2023-05-10T02:14:39.943Z,1.55
2023-05-10T02:17:07.011Z,1.60
2023-05-10T02:19:33.918Z,2.17
2023-05-10T02:22:00.818Z,2.00
2023-05-10T02:24:27.780Z,1.58
2023-05-10T02:26:55.428Z,1.95
2023-05-10T02:29:24.486Z,1.70
2023-05-10T02:31:52.747Z,1.98
2023-05-10T02:34:19.948Z,1.73
2023-05-10T02:36:47.242Z,1.40
2023-05-10T02:39:14.589Z,1.60
2023-05-10T02:41:42.254Z,1.50
2023-05-10T02:44:09.184Z,1.98
2023-05-10T02:46:36.911Z,1.80
2023-05-10T02:49:03.886Z,10.50
2023-05-10T02:51:32.907Z,1.85
2023-05-10T02:54:00.492Z,1.90
2023-05-10T02:56:32.852Z,1.90
2023-05-10T02:58:59.754Z,1.55
2023-05-10T03:01:26.647Z,1.80
2023-05-10T03:03:53.521Z,1.52
2023-05-10T03:06:20.366Z,2.20
2023-05-10T03:08:47.285Z,1.45
2023-05-10T03:11:33.327Z,1.75
2023-05-10T03:14:24.591Z,1.48
2023-05-10T03:17:33.176Z,1.85
2023-05-10T03:20:05.466Z,1.75
2023-05-10T03:22:33.613Z,1.67
2023-05-10T03:25:00.574Z,1.92
2023-05-10T03:27:30.294Z,1.60
2023-05-10T03:29:57.721Z,1.83
2023-05-10T03:32:25.601Z,1.40
2023-05-10T03:34:52.748Z,1.98
2023-05-10T03:37:20.204Z,1.73
2023-05-10T03:39:47.887Z,1.52
2023-05-10T03:42:15.874Z,1.63
2023-05-10T03:44:44.458Z,1.98
2023-05-10T03:47:11.601Z,1.60
2023-05-10T03:49:39.165Z,1.55
2023-05-10T03:52:06.921Z,1.20
2023-05-10T03:54:35.507Z,1.55
2023-05-10T03:57:03.946Z,1.63
2023-05-10T03:59:31.258Z,1.75
2023-05-10T04:01:58.301Z,2.58
2023-05-10T04:04:26.252Z,1.98
2023-05-10T04:06:53.127Z,1.83
2023-05-10T04:09:20.143Z,2.00
2023-05-10T04:11:47.123Z,1.90
2023-05-10T04:14:13.974Z,1.77
2023-05-10T04:16:41.146Z,1.73
2023-05-10T04:19:09.168Z,1.90
2023-05-10T04:21:37.004Z,1.58
2023-05-10T04:24:04.754Z,1.75
2023-05-10T04:26:32.734Z,1.58
2023-05-10T04:28:59.848Z,1.50
2023-05-10T04:31:27.702Z,1.80
2023-05-10T04:33:54.631Z,1.85
2023-05-10T04:36:21.782Z,1.48
2023-05-10T04:38:49.009Z,1.70
2023-05-10T04:41:16.250Z,2.13
2023-05-10T04:43:43.276Z,1.88
2023-05-10T04:46:10.176Z,1.80
2023-05-10T04:48:37.048Z,1.98
2023-05-10T04:51:06.034Z,1.73
2023-05-10T04:53:34.361Z,1.50
2023-05-10T04:56:01.543Z,1.38
2023-05-10T04:58:29.006Z,1.67
2023-05-10T05:00:56.050Z,1.40
2023-05-10T05:03:23.951Z,1.35
2023-05-10T05:05:51.615Z,1.52
2023-05-10T05:08:19.350Z,1.20
2023-05-10T05:10:46.724Z,1.10
2023-05-10T05:13:13.938Z,1.00
2023-05-10T05:15:40.840Z,1.10
2023-05-10T05:18:07.705Z,1.20
2023-05-10T05:20:37.417Z,0.95
2023-05-10T05:23:04.252Z,1.30
2023-05-10T05:25:31.102Z,1.25
2023-05-10T05:27:57.971Z,1.33
2023-05-10T05:30:24.800Z,1.00
2023-05-10T05:32:51.707Z,1.13
2023-05-10T05:35:18.851Z,1.35
2023-05-10T05:37:46.166Z,1.00
2023-05-10T05:40:16.311Z,1.40
2023-05-10T05:42:43.146Z,1.48
2023-05-10T05:45:14.337Z,1.50
2023-05-10T05:47:41.517Z,1.30
2023-05-10T05:50:08.891Z,1.30
2023-05-10T05:52:35.994Z,1.90
2023-05-10T05:55:03.198Z,1.73
2023-05-10T05:57:30.965Z,2.05
2023-05-10T05:59:57.852Z,2.20
2023-05-10T06:02:24.824Z,1.95
2023-05-10T06:04:51.757Z,1.88
2023-05-10T06:07:18.731Z,2.00
2023-05-10T06:09:45.846Z,1.90
2023-05-10T06:12:13.037Z,2.25
2023-05-10T06:14:40.672Z,2.47
2023-05-10T06:17:08.037Z,2.28
2023-05-10T06:19:34.906Z,1.90
2023-05-10T06:22:02.167Z,2.25
2023-05-10T06:24:29.080Z,2.60
2023-05-10T06:26:56.036Z,2.40
2023-05-10T06:29:23.025Z,2.97
2023-05-10T06:31:50.068Z,1.92
2023-05-10T06:34:17.238Z,2.45
2023-05-10T06:36:44.347Z,2.30
2023-05-10T06:39:12.687Z,2.35
2023-05-10T06:41:39.544Z,2.50
2023-05-10T06:44:06.660Z,1.90
2023-05-10T06:46:33.677Z,2.10
2023-05-10T06:49:00.972Z,2.10
2023-05-10T06:51:27.922Z,2.45
2023-05-10T06:53:55.153Z,1.98
2023-05-10T06:56:22.760Z,2.20
2023-05-10T06:58:50.033Z,2.10
2023-05-10T07:01:17.084Z,2.45
2023-05-10T07:03:44.309Z,1.95
2023-05-10T07:06:21.715Z,1.60
2023-05-10T07:08:58.213Z,1.70
2023-05-10T07:11:25.119Z,1.70
2023-05-10T07:13:52.189Z,1.60
2023-05-10T07:16:19.504Z,1.55
2023-05-10T07:18:46.420Z,1.65
2023-05-10T07:21:13.275Z,1.98
2023-05-10T07:23:40.958Z,1.35
2023-05-10T07:26:08.697Z,1.35
2023-05-10T07:28:37.715Z,1.17
2023-05-10T07:31:05.301Z,1.48
2023-05-10T07:33:33.561Z,1.40
2023-05-10T07:36:00.510Z,2.05
2023-05-10T07:38:27.352Z,1.40
2023-05-10T07:40:54.278Z,1.60
2023-05-10T07:43:21.324Z,1.20
2023-05-10T07:45:48.365Z,1.15
2023-05-10T07:48:15.656Z,1.40
2023-05-10T07:50:42.552Z,1.80
2023-05-10T07:53:09.394Z,1.85
2023-05-10T07:55:36.673Z,1.73
2023-05-10T07:58:03.735Z,1.60
2023-05-10T08:00:30.766Z,2.03
2023-05-10T08:02:57.648Z,2.00
2023-05-10T08:05:24.625Z,1.55
2023-05-10T08:07:51.545Z,1.45
2023-05-10T08:10:18.536Z,1.40
2023-05-10T08:12:45.534Z,1.50
2023-05-10T08:15:12.412Z,1.92
2023-05-10T08:17:39.377Z,1.60
2023-05-10T08:20:06.729Z,1.50
2023-05-10T08:22:33.569Z,1.73
2023-05-10T08:25:00.410Z,1.27
2023-05-10T08:27:27.253Z,1.52
2023-05-10T08:29:54.103Z,1.10
2023-05-10T08:32:20.990Z,1.13
2023-05-10T08:34:47.884Z,1.10
2023-05-10T08:37:14.856Z,1.33
2023-05-10T08:39:41.861Z,1.20
2023-05-10T08:42:09.406Z,1.20
2023-05-10T08:44:37.391Z,1.27
2023-05-10T08:47:06.494Z,1.30
2023-05-10T08:49:33.979Z,1.20
2023-05-10T08:52:04.188Z,1.70
2023-05-10T08:54:32.516Z,0.73
2023-05-10T08:56:59.488Z,0.95
2023-05-10T08:59:26.479Z,1.30
2023-05-10T09:01:54.609Z,1.23
2023-05-10T09:04:21.779Z,1.20
2023-05-10T09:06:48.731Z,1.02
2023-05-10T09:09:15.953Z,1.20
2023-05-10T09:11:43.152Z,1.00
2023-05-10T09:14:10.624Z,1.20
2023-05-10T09:16:37.459Z,1.30
2023-05-10T09:19:04.467Z,1.08
2023-05-10T09:21:32.154Z,1.35
2023-05-10T09:23:59.004Z,1.10
2023-05-10T09:26:25.846Z,1.20
2023-05-10T09:28:59.842Z,1.42
2023-05-10T09:31:47.522Z,1.02
2023-05-10T09:34:19.060Z,0.70
2023-05-10T09:36:57.302Z,1.15
2023-05-10T09:39:37.314Z,1.02
2023-05-10T09:42:10.041Z,0.95
2023-05-10T09:44:37.288Z,0.93
2023-05-10T09:47:04.337Z,0.93
2023-05-10T09:49:31.447Z,0.95
2023-05-10T09:52:02.706Z,0.93
2023-05-10T09:54:29.762Z,1.08
2023-05-10T09:56:56.656Z,1.00
2023-05-10T09:59:23.528Z,0.93
2023-05-10T10:01:54.245Z,0.85
2023-05-10T10:04:21.490Z,0.80
2023-05-10T10:06:49.024Z,0.70
2023-05-10T10:09:15.856Z,0.98
2023-05-10T10:11:42.712Z,1.13
2023-05-10T10:14:09.560Z,0.90
2023-05-10T10:16:36.503Z,0.93
2023-05-10T10:19:03.490Z,1.05
2023-05-10T10:21:30.480Z,1.13
2023-05-10T10:23:57.410Z,1.10
2023-05-10T10:26:24.283Z,1.00
2023-05-10T10:28:58.171Z,0.73
2023-05-10T10:31:48.686Z,1.23
2023-05-10T10:34:31.555Z,1.20
2023-05-10T10:36:58.995Z,1.13
2023-05-10T10:39:28.661Z,1.00
2023-05-10T10:41:56.899Z,0.90
2023-05-10T10:44:26.902Z,0.98
2023-05-10T10:47:30.782Z,1.10
2023-05-10T10:50:09.022Z,1.00
2023-05-10T10:52:37.251Z,0.95
2023-05-10T10:55:15.511Z,1.17
2023-05-10T10:57:42.506Z,0.90
2023-05-10T11:00:25.039Z,1.10
2023-05-10T11:02:54.946Z,1.35
2023-05-10T11:05:33.841Z,1.25
2023-05-10T11:08:01.202Z,0.95
2023-05-10T11:10:28.507Z,1.13
2023-05-10T11:13:05.371Z,1.20
2023-05-10T11:15:33.427Z,1.33
2023-05-10T11:18:00.435Z,0.90
2023-05-10T11:20:34.512Z,1.08
2023-05-10T11:23:13.775Z,1.00
2023-05-10T11:25:45.171Z,1.20
2023-05-10T11:28:12.969Z,1.35
2023-05-10T11:30:40.763Z,1.15
2023-05-10T11:33:08.384Z,1.10
2023-05-10T11:35:42.990Z,1.05
2023-05-10T11:38:11.123Z,1.15
2023-05-10T11:40:38.386Z,0.98
2023-05-10T11:43:05.391Z,0.77
2023-05-10T11:45:35.409Z,0.90
2023-05-10T11:48:02.572Z,0.75
2023-05-10T11:50:29.496Z,0.85
2023-05-10T11:52:56.889Z,1.05
2023-05-10T11:55:25.218Z,1.20
2023-05-10T11:57:55.552Z,1.00
2023-05-10T12:00:22.664Z,0.82
2023-05-10T12:02:49.849Z,1.00
2023-05-10T12:05:16.948Z,1.10
2023-05-10T12:07:44.007Z,1.15
2023-05-10T12:10:15.502Z,0.90
2023-05-10T12:12:46.778Z,0.50
2023-05-10T12:15:20.872Z,0.95
2023-05-10T12:17:48.053Z,0.90
2023-05-10T12:20:19.799Z,1.00
2023-05-10T12:22:54.529Z,1.02
2023-05-10T12:25:22.707Z,1.13
2023-05-10T12:27:53.748Z,0.82
2023-05-10T12:30:22.572Z,0.90
2023-05-10T12:32:49.567Z,0.80
2023-05-10T12:35:17.023Z,0.50
2023-05-10T12:37:44.414Z,0.50
2023-05-10T12:40:14.599Z,0.50
2023-05-10T12:42:41.642Z,0.40
2023-05-10T12:45:09.253Z,0.30
2023-05-10T12:47:36.196Z,0.30
2023-05-10T12:50:03.700Z,0.20
2023-05-10T12:52:30.917Z,0.20
2023-05-10T12:54:57.806Z,0.30
2023-05-10T12:57:24.643Z,0.38
2023-05-10T12:59:51.558Z,0.35
2023-05-10T13:02:19.196Z,0.30
2023-05-10T13:04:48.941Z,0.30
2023-05-10T13:07:17.779Z,0.47
2023-05-10T13:09:44.720Z,0.43
2023-05-10T13:12:11.598Z,0.38
2023-05-10T13:14:38.678Z,0.20
2023-05-10T13:17:05.991Z,0.45
2023-05-10T13:19:32.877Z,0.32
2023-05-10T13:21:59.797Z,0.22
2023-05-10T13:24:26.675Z,0.40
2023-05-10T13:26:53.535Z,0.20
2023-05-10T13:29:21.995Z,0.52
2023-05-10T13:31:49.041Z,0.45
2023-05-10T13:34:15.883Z,0.40
2023-05-10T13:36:43.099Z,0.60
2023-05-10T13:39:09.961Z,0.60
2023-05-10T13:41:37.761Z,0.40
2023-05-10T13:44:04.690Z,0.50
2023-05-10T13:46:32.012Z,0.60
2023-05-10T13:48:58.956Z,0.68
2023-05-10T13:51:25.879Z,0.52
2023-05-10T13:53:53.168Z,0.50
2023-05-10T13:56:20.086Z,0.43
2023-05-10T13:58:47.476Z,0.60
2023-05-10T14:01:14.439Z,0.35
2023-05-10T14:03:41.605Z,0.38
2023-05-10T14:06:08.975Z,1.13
2023-05-10T14:08:36.453Z,0.60
2023-05-10T14:11:03.346Z,0.70
2023-05-10T14:13:30.248Z,0.70
2023-05-10T14:15:57.240Z,0.63
2023-05-10T14:18:24.177Z,0.60
2023-05-10T14:20:51.355Z,0.50
2023-05-10T14:23:18.306Z,0.60
2023-05-10T14:25:45.240Z,0.73
2023-05-10T14:28:13.381Z,0.57
2023-05-10T14:30:40.308Z,0.70
2023-05-10T14:33:07.245Z,0.70
2023-05-10T14:35:34.167Z,0.80
2023-05-10T14:38:01.024Z,0.95
2023-05-10T14:40:27.879Z,0.70
2023-05-10T14:42:54.714Z,0.43
2023-05-10T14:45:22.062Z,0.77
2023-05-10T14:47:49.069Z,0.57
2023-05-10T14:50:28.209Z,1.50
2023-05-10T14:53:02.455Z,0.90
2023-05-10T14:55:29.263Z,0.70
2023-05-10T14:57:56.164Z,0.30
2023-05-10T15:00:23.465Z,0.50
2023-05-10T15:02:50.818Z,0.50
2023-05-10T15:05:18.416Z,0.90
2023-05-10T15:07:45.785Z,0.80
2023-05-10T15:10:12.710Z,0.40
2023-05-10T15:12:39.670Z,0.60
2023-05-10T15:15:07.403Z,0.52
2023-05-10T15:17:34.657Z,0.20
2023-05-10T15:20:04.109Z,0.20
2023-05-10T15:22:34.358Z,0.60
2023-05-10T15:25:01.432Z,0.40
2023-05-10T15:27:28.385Z,0.30
2023-05-10T15:29:55.288Z,0.40
2023-05-10T15:32:22.367Z,0.50
2023-05-10T15:34:49.377Z,0.52
2023-05-10T15:37:16.253Z,0.40
2023-05-10T15:39:43.148Z,0.63
2023-05-10T15:42:10.026Z,0.52
2023-05-10T15:44:39.356Z,0.80
2023-05-10T15:47:07.752Z,0.60
2023-05-10T15:49:35.084Z,0.88
2023-05-10T15:52:02.047Z,0.80
2023-05-10T15:54:28.843Z,0.70
2023-05-10T15:56:55.695Z,0.70
2023-05-10T15:59:22.627Z,0.60
2023-05-10T16:01:50.273Z,0.70
2023-05-10T16:04:17.287Z,0.68
2023-05-10T16:06:44.193Z,0.60
2023-05-10T16:09:11.051Z,0.50
2023-05-10T16:11:37.895Z,0.52
2023-05-10T16:14:07.077Z,0.60
2023-05-10T16:16:34.367Z,0.60
2023-05-10T16:19:02.423Z,0.80
2023-05-10T16:21:32.262Z,0.68
2023-05-10T16:24:03.695Z,0.50
2023-05-10T16:26:30.693Z,0.50
2023-05-10T16:28:57.567Z,0.77
2023-05-10T16:31:24.770Z,0.60
2023-05-10T16:33:51.765Z,0.50
2023-05-10T16:36:18.600Z,0.63
2023-05-10T16:38:45.893Z,0.75
2023-05-10T16:41:12.835Z,0.70
2023-05-10T16:43:39.757Z,1.30
2023-05-10T16:46:12.836Z,0.82
2023-05-10T16:48:39.823Z,0.52
2023-05-10T16:51:06.729Z,0.98
2023-05-10T16:53:34.093Z,0.60
2023-05-10T16:56:01.311Z,0.65
2023-05-10T16:58:28.195Z,0.80
2023-05-10T17:01:06.732Z,0.55
2023-05-10T17:03:38.082Z,0.60
2023-05-10T17:06:06.713Z,0.82
2023-05-10T17:08:33.805Z,0.93
2023-05-10T17:11:04.230Z,0.70
2023-05-10T17:13:31.935Z,0.65
2023-05-10T17:15:59.043Z,0.88
2023-05-10T17:18:26.759Z,0.70
2023-05-10T17:20:53.945Z,0.70
2023-05-10T17:23:21.085Z,0.70
2023-05-10T17:25:47.938Z,0.70
2023-05-10T17:28:14.796Z,0.80
2023-05-10T17:30:41.661Z,0.52
2023-05-10T17:33:08.503Z,1.30
2023-05-10T17:35:35.459Z,1.10
2023-05-10T17:38:02.744Z,0.77
2023-05-10T17:40:29.718Z,1.13
2023-05-10T17:42:56.611Z,1.00
2023-05-10T17:45:23.536Z,0.85
2023-05-10T17:47:50.486Z,0.80
2023-05-10T17:50:17.448Z,0.77
2023-05-10T17:52:44.259Z,0.63
2023-05-10T17:55:11.814Z,0.90
2023-05-10T17:57:38.884Z,0.68
2023-05-10T18:00:08.748Z,0.80
2023-05-10T18:02:36.948Z,0.65
2023-05-10T18:05:04.738Z,1.00
2023-05-10T18:07:31.878Z,0.90
2023-05-10T18:09:58.867Z,0.80
2023-05-10T18:12:25.778Z,0.82
2023-05-10T18:14:52.631Z,0.70
2023-05-10T18:17:19.563Z,0.63
2023-05-10T18:19:46.498Z,0.60
2023-05-10T18:22:13.293Z,0.70
2023-05-10T18:24:40.406Z,0.80
2023-05-10T18:27:09.943Z,0.90
2023-05-10T18:29:37.190Z,0.70
2023-05-10T18:32:04.197Z,0.60
2023-05-10T18:34:31.108Z,0.60
2023-05-10T18:36:58.017Z,0.60
2023-05-10T18:39:25.079Z,0.70
2023-05-10T18:41:52.164Z,0.60
2023-05-10T18:44:19.171Z,0.80
2023-05-10T18:46:46.521Z,0.47
2023-05-10T18:49:13.475Z,0.57
2023-05-10T18:51:40.521Z,0.95
2023-05-10T18:54:07.511Z,0.75
2023-05-10T18:56:34.381Z,0.60
2023-05-10T18:59:01.525Z,0.85
2023-05-10T19:01:28.514Z,0.55
2023-05-10T19:03:55.422Z,0.47
2023-05-10T19:06:22.303Z,0.60
2023-05-10T19:08:50.029Z,0.60
2023-05-10T19:11:17.516Z,0.50
2023-05-10T19:13:45.363Z,0.70
2023-05-10T19:16:15.225Z,0.63
2023-05-10T19:18:44.175Z,0.63
2023-05-10T19:21:11.529Z,0.57
2023-05-10T19:23:40.382Z,0.50
2023-05-10T19:26:09.313Z,0.35
2023-05-10T19:28:37.125Z,0.80
2023-05-10T19:31:04.154Z,0.55
2023-05-10T19:33:31.707Z,0.52
2023-05-10T19:35:58.616Z,0.47
2023-05-10T19:38:25.643Z,0.50
2023-05-10T19:40:58.033Z,0.60
2023-05-10T19:43:28.800Z,1.02
2023-05-10T19:45:59.264Z,0.43
2023-05-10T19:48:26.711Z,0.50
2023-05-10T19:50:54.007Z,0.60
2023-05-10T19:53:20.939Z,0.63
2023-05-10T19:55:48.480Z,0.63
2023-05-10T19:58:15.402Z,0.65
2023-05-10T20:00:42.306Z,0.50
2023-05-10T20:03:09.480Z,0.38
2023-05-10T20:05:36.590Z,0.90
2023-05-10T20:08:03.471Z,0.45
2023-05-10T20:10:30.578Z,0.55
2023-05-10T20:12:58.762Z,0.68
2023-05-10T20:15:25.760Z,0.70
2023-05-10T20:17:55.627Z,0.52
2023-05-10T20:20:22.710Z,0.73
2023-05-10T20:22:50.545Z,0.65
2023-05-10T20:25:18.055Z,0.57
2023-05-10T20:27:45.374Z,0.70
2023-05-10T20:30:12.603Z,0.63
2023-05-10T20:32:39.644Z,0.73
2023-05-10T20:35:07.254Z,0.63
2023-05-10T20:37:34.091Z,0.60
2023-05-10T20:40:01.186Z,1.00
2023-05-10T20:42:28.046Z,0.88
2023-05-10T20:44:54.925Z,0.70
2023-05-10T20:47:23.517Z,0.70
2023-05-10T20:49:50.492Z,0.80
2023-05-10T20:52:17.507Z,0.80
2023-05-10T20:54:44.355Z,0.77
2023-05-10T20:57:14.557Z,0.85
2023-05-10T20:59:41.425Z,0.70
2023-05-10T21:02:08.347Z,0.80
2023-05-10T21:04:35.293Z,0.73
2023-05-10T21:07:02.292Z,0.77
2023-05-10T21:09:29.257Z,0.88
2023-05-10T21:11:56.155Z,0.63
2023-05-10T21:14:23.104Z,0.90
2023-05-10T21:16:51.284Z,0.63
2023-05-10T21:19:18.276Z,0.73
2023-05-10T21:21:45.190Z,0.80
2023-05-10T21:24:12.597Z,0.63
2023-05-10T21:26:39.689Z,0.90
2023-05-10T21:29:07.191Z,0.60
2023-05-10T21:31:34.212Z,0.85
2023-05-10T21:34:01.268Z,0.82
2023-05-10T21:36:28.206Z,0.80
2023-05-10T21:38:55.091Z,0.80
2023-05-10T21:41:22.034Z,0.70
2023-05-10T21:43:48.901Z,0.82
2023-05-10T21:46:15.910Z,0.82
2023-05-10T21:48:42.880Z,0.80
2023-05-10T21:51:09.859Z,0.70
2023-05-10T21:53:37.555Z,0.70
2023-05-10T21:56:04.865Z,0.80
2023-05-10T21:58:31.724Z,0.88
2023-05-10T22:00:58.637Z,0.85
2023-05-10T22:03:26.302Z,0.85
2023-05-10T22:05:53.290Z,0.75
2023-05-10T22:08:20.148Z,1.00
2023-05-10T22:10:47.005Z,0.70
2023-05-10T22:13:14.170Z,0.88
2023-05-10T22:15:41.012Z,0.82
2023-05-10T22:18:08.001Z,0.70
2023-05-10T22:20:34.842Z,1.38
2023-05-10T22:23:01.786Z,0.88
2023-05-10T22:25:28.672Z,0.88
2023-05-10T22:27:55.899Z,1.00
2023-05-10T22:30:22.855Z,0.70
2023-05-10T22:32:49.769Z,0.90
2023-05-10T22:35:16.714Z,0.98
2023-05-10T22:37:43.649Z,0.82
2023-05-10T22:40:11.087Z,0.80
2023-05-10T22:42:38.463Z,1.13
2023-05-10T22:45:05.911Z,0.70
2023-05-10T22:47:33.638Z,0.65
2023-05-10T22:50:03.311Z,0.88
2023-05-10T22:52:30.207Z,0.82
2023-05-10T22:54:57.288Z,0.77
2023-05-10T22:57:24.567Z,0.90
2023-05-10T22:59:51.731Z,0.90
2023-05-10T23:02:18.638Z,0.50
2023-05-10T23:04:45.643Z,0.95
2023-05-10T23:07:12.790Z,0.80
2023-05-10T23:09:39.698Z,0.90
2023-05-10T23:12:06.637Z,0.80
2023-05-10T23:14:33.554Z,1.02
2023-05-10T23:17:00.670Z,1.00
2023-05-10T23:19:27.532Z,0.80
2023-05-10T23:21:54.456Z,0.60
2023-05-10T23:24:21.352Z,0.80
2023-05-10T23:26:48.262Z,0.90
2023-05-10T23:29:15.236Z,0.80
2023-05-10T23:31:45.659Z,0.82
2023-05-10T23:34:12.683Z,0.57
2023-05-10T23:36:39.627Z,1.10
2023-05-10T23:39:08.210Z,0.70
2023-05-10T23:41:35.152Z,0.82
2023-05-10T23:44:04.835Z,0.80
2023-05-10T23:46:31.735Z,0.80
2023-05-10T23:48:58.700Z,0.73
2023-05-10T23:51:25.656Z,0.80
2023-05-10T23:53:52.522Z,0.80
2023-05-10T23:56:19.396Z,0.73
2023-05-10T23:58:46.460Z,0.80
